Terminal Aerodrome Forecast
Issued by NWS Sterling, VA

Current Version | Previous Version | Text Only | Print | Product List | Glossary Off
Versions: 1 2 3 4 5 6 7 8 9 10 11 12 13 14 15

373
FTUS41 KLWX 202334
TAFMRB
TAF
KMRB 202334Z 2100/2124 VRB04KT P6SM SKC
     FM210800 00000KT P6SM SCT080
     FM212000 18006KT P6SM SCT080=

USA.gov is the U.S. government's official web portal to all federal, state and local government web resources and services.